Time;durP1;ratioP1;P1;durP2;ratioP2;P2;SDS_P1;SDS_P2;PMS_P1;PMS_P2;Temp;Humidity;BMP_temperature;BMP_pressure;BME280_temperature;BME280_humidity;BME280_pressure;Samples;Min_cycle;Max_cycle;Signal;HPM_P1;HPM_P2
2022/09/20 00:01:27;;;;;;;;;1.00;1.00;;;;;17.26;46.74;-19668.28;4990860;28;45449;-69
2022/09/20 00:03:55;;;;;;;;;2.00;1.00;;;;;17.25;46.69;-19668.03;5054165;28;45551;-69
2022/09/20 00:06:23;;;;;;;;;0.00;0.00;;;;;17.20;46.72;-19668.78;4983057;28;45484;-69
2022/09/20 00:08:49;;;;;;;;;1.00;1.00;;;;;17.18;46.72;-19668.25;4959745;28;45333;-70
2022/09/20 00:11:21;;;;;;;;;2.00;1.00;;;;;17.14;47.03;-19667.19;4987684;28;45477;-69
2022/09/20 00:13:48;;;;;;;;;2.00;1.00;;;;;17.04;47.39;-19664.50;4988572;28;45536;-69
2022/09/20 00:16:17;;;;;;;;;1.00;1.00;;;;;17.13;47.15;-19666.78;4988674;28;48309;-69
2022/09/20 00:18:46;;;;;;;;;1.67;1.67;;;;;16.97;46.96;-19662.75;4991221;28;45504;-70
2022/09/20 00:21:21;;;;;;;;;2.00;0.00;;;;;16.99;47.54;-19663.28;4989618;28;45486;-69
2022/09/20 00:23:46;;;;;;;;;1.00;1.00;;;;;17.05;47.39;-19664.78;4989395;28;45536;-69
2022/09/20 00:26:12;;;;;;;;;1.00;1.00;;;;;17.00;47.59;-19663.44;4992973;28;45813;-69
2022/09/20 00:28:38;;;;;;;;;1.00;1.00;;;;;16.88;47.59;-19660.47;4987814;28;45527;-69
2022/09/20 00:31:04;;;;;;;;;1.00;1.00;;;;;16.99;47.59;-19663.16;4991195;28;45483;-69
2022/09/20 00:36:14;;;;;;;;;2.67;1.00;;;;;16.91;47.67;-19661.16;4981105;28;45981;-69
2022/09/20 00:38:40;;;;;;;;;0.00;0.00;;;;;16.85;47.89;-19659.53;4992479;28;45525;-69
2022/09/20 00:41:06;;;;;;;;;2.00;2.00;;;;;16.84;47.85;-19659.41;4993476;28;45467;-70
2022/09/20 00:43:43;;;;;;;;;2.33;1.67;;;;;16.76;48.04;-19657.25;4991486;28;45505;-69
2022/09/20 00:46:38;;;;;;;;;1.00;1.00;;;;;16.73;47.79;-19656.31;4989469;28;47331;-69
2022/09/20 00:49:14;;;;;;;;;2.00;2.00;;;;;16.64;48.04;-19654.19;4991201;28;45598;-70
2022/09/20 00:51:44;;;;;;;;;0.67;0.67;;;;;16.54;48.12;-19651.38;4989057;28;45235;-70
2022/09/20 00:54:14;;;;;;;;;3.00;1.00;;;;;16.56;48.24;-19651.91;4993016;28;45389;-70
2022/09/20 00:56:42;;;;;;;;;1.00;1.00;;;;;16.52;48.63;-19650.84;4989378;28;45642;-69
2022/09/20 00:59:15;;;;;;;;;1.00;1.00;;;;;16.48;48.51;-19649.91;4990250;28;45536;-69
2022/09/20 01:01:43;;;;;;;;;1.00;1.00;;;;;16.41;48.68;-19648.03;4988543;28;45397;-69
2022/09/20 01:04:13;;;;;;;;;1.00;1.00;;;;;16.41;48.89;-19648.16;4991960;28;45504;-69
2022/09/20 01:06:39;;;;;;;;;2.33;2.00;;;;;16.42;49.10;-19648.28;4993958;28;47266;-69
2022/09/20 01:09:06;;;;;;;;;3.00;1.00;;;;;16.42;49.20;-19648.28;4992002;28;46066;-69
2022/09/20 01:11:33;;;;;;;;;1.00;1.00;;;;;16.39;49.15;-19647.50;4989514;28;45562;-69
2022/09/20 01:13:59;;;;;;;;;1.33;0.67;;;;;16.31;49.42;-19645.47;4990780;28;45557;-69
2022/09/20 01:16:26;;;;;;;;;1.00;1.00;;;;;16.37;49.26;-19646.94;4971763;28;46053;-69
2022/09/20 01:18:54;;;;;;;;;1.00;1.00;;;;;16.36;49.26;-19646.81;4984285;28;45470;-69
2022/09/20 01:21:20;;;;;;;;;2.33;1.00;;;;;16.34;49.47;-19646.28;4989653;28;45429;-69
2022/09/20 01:23:55;;;;;;;;;2.33;2.00;;;;;16.34;49.32;-19646.16;4975746;28;45530;-69
2022/09/20 01:26:36;;;;;;;;;3.00;2.00;;;;;16.31;49.46;-19645.47;4975759;28;46385;-69
2022/09/20 01:29:35;;;;;;;;;1.00;1.00;;;;;16.31;49.50;-19645.34;4989153;28;45514;-69
2022/09/20 01:32:07;;;;;;;;;2.00;2.00;;;;;16.30;49.62;-19645.22;5011503;28;45525;-69
2022/09/20 01:34:35;;;;;;;;;2.00;2.00;;;;;16.28;49.57;-19644.53;5013230;28;47152;-70
2022/09/20 01:37:05;;;;;;;;;1.00;1.00;;;;;16.27;49.63;-19644.28;5013544;28;46668;-70
2022/09/20 01:39:51;;;;;;;;;1.00;1.00;;;;;16.28;49.84;-19644.53;5009375;28;45423;-70
2022/09/20 01:42:16;;;;;;;;;1.33;1.00;;;;;16.28;49.64;-19644.53;5012501;28;45397;-70
2022/09/20 01:44:54;;;;;;;;;1.33;1.33;;;;;16.25;49.83;-19644.00;5015078;28;45300;-70
2022/09/20 01:47:42;;;;;;;;;1.67;1.67;;;;;16.17;49.72;-15895.47;5012713;28;46751;-70
2022/09/20 01:50:32;;;;;;;;;1.67;1.67;;;;;16.19;50.16;-7626.59;5013686;28;45523;-69
2022/09/20 01:53:15;;;;;;;;;1.00;1.00;;;;;16.17;49.87;-17190.03;5014176;28;45424;-69
2022/09/20 01:55:56;;;;;;;;;1.00;1.00;;;;;16.15;49.96;-16605.06;5014658;28;45361;-69
2022/09/20 01:58:40;;;;;;;;;2.00;2.00;;;;;16.14;49.87;-17387.66;4995766;28;47055;-69
2022/09/20 02:01:36;;;;;;;;;1.67;1.67;;;;;16.13;49.77;-15610.00;5009512;28;45493;-69
2022/09/20 02:04:39;;;;;;;;;1.33;1.00;;;;;16.10;50.12;-10366.56;5012391;28;45500;-69
2022/09/20 02:07:32;;;;;;;;;1.67;1.67;;;;;16.13;49.93;-10280.59;5013624;28;45555;-69
2022/09/20 02:10:15;;;;;;;;;1.00;1.00;;;;;16.15;49.94;-10738.31;4993305;28;45481;-69
2022/09/20 02:12:50;;;;;;;;;1.33;1.33;;;;;16.13;50.11;-15607.38;4992712;28;45471;-69
2022/09/20 02:15:43;;;;;;;;;4.00;2.00;;;;;16.14;49.97;-15529.28;4974689;28;45444;-69
2022/09/20 02:18:35;;;;;;;;;0.00;0.00;;;;;16.10;49.86;-17350.31;4991663;28;45356;-69
2022/09/20 02:21:19;;;;;;;;;1.33;1.00;;;;;16.06;50.35;-15026.53;4990863;28;46267;-69
2022/09/20 02:24:14;;;;;;;;;1.00;1.00;;;;;16.02;49.74;-16260.47;4991598;28;45487;-69
2022/09/20 02:27:08;;;;;;;;;1.00;1.00;;;;;16.01;49.95;-11664.31;4992270;28;45690;-69
2022/09/20 02:29:55;;;;;;;;;1.00;1.00;;;;;15.98;50.00;-12055.84;4991150;28;45421;-69
2022/09/20 02:32:32;;;;;;;;;2.00;0.33;;;;;15.96;50.06;-6989.41;4991345;28;46397;-69
2022/09/20 02:35:11;;;;;;;;;2.00;0.00;;;;;15.94;50.10;-12240.75;4972815;28;45581;-69
2022/09/20 02:37:52;;;;;;;;;1.00;1.00;;;;;15.93;50.38;-5097.59;4990512;28;45547;-69
2022/09/20 02:40:37;;;;;;;;;1.00;1.00;;;;;15.91;50.02;-4555.81;4988581;28;45406;-69
2022/09/20 02:43:26;;;;;;;;;2.33;1.00;;;;;15.88;50.28;-1764.88;4991572;28;46035;-82
2022/09/20 02:46:09;;;;;;;;;1.00;1.00;;;;;15.90;50.35;1387.28;4994339;28;45581;-83
2022/09/20 02:49:03;;;;;;;;;1.00;1.00;;;;;15.86;50.45;6477.84;4993980;27;45476;-83
2022/09/20 02:51:48;;;;;;;;;1.00;1.00;;;;;15.82;50.59;20756.63;4992939;28;45555;-83
2022/09/20 02:54:20;;;;;;;;;3.00;1.33;;;;;15.81;50.57;15026.19;4994588;28;46388;-83
2022/09/20 02:57:01;;;;;;;;;1.00;1.00;;;;;15.79;50.67;24771.88;4995162;28;45992;-83
2022/09/20 02:59:39;;;;;;;;;4.00;3.00;;;;;15.79;50.61;23814.88;4994706;28;45411;-83
2022/09/20 03:02:23;;;;;;;;;1.00;1.00;;;;;15.79;50.68;21245.38;4994091;28;45302;-83
2022/09/20 03:05:13;;;;;;;;;0.67;0.67;;;;;15.77;50.56;30821.31;4982387;28;45531;-83
2022/09/20 03:08:11;;;;;;;;;2.00;0.00;;;;;15.76;50.96;42266.09;4991341;28;45406;-83
2022/09/20 03:10:41;;;;;;;;;3.00;0.67;;;;;15.73;50.84;48688.31;4994853;28;45513;-82
2022/09/20 03:14:01;;;;;;;;;0.67;0.67;;;;;15.74;50.92;48688.75;4994948;28;45517;-82
2022/09/20 03:16:51;;;;;;;;;0.67;0.67;;;;;15.72;50.85;53443.09;4996040;28;47368;-83
2022/09/20 03:19:50;;;;;;;;;1.00;1.00;;;;;15.68;50.76;49023.09;5007939;28;45440;-82
2022/09/20 03:22:38;;;;;;;;;1.00;0.67;;;;;15.70;50.93;50723.31;5001196;28;45547;-83
2022/09/20 03:25:39;;;;;;;;;1.00;1.00;;;;;15.58;50.99;53430.47;4995256;28;45426;-82
2022/09/20 03:28:35;;;;;;;;;1.33;1.33;;;;;15.66;51.02;52418.38;4976516;28;48840;-84
2022/09/20 03:31:11;;;;;;;;;1.67;1.67;;;;;15.62;51.13;51395.50;4998141;28;45802;-85
2022/09/20 03:33:39;;;;;;;;;1.67;0.33;;;;;15.67;51.12;55138.25;4993490;28;45507;-85
2022/09/20 03:36:31;;;;;;;;;0.67;0.67;;;;;15.62;50.91;65688.41;4994236;28;45486;-85
2022/09/20 03:39:30;;;;;;;;;0.00;0.00;;;;;15.60;51.06;72510.13;4985903;28;46284;-85
2022/09/20 03:42:11;;;;;;;;;0.67;0.67;;;;;15.55;51.36;78655.59;4998573;28;45382;-84
2022/09/20 03:44:42;;;;;;;;;1.33;0.67;;;;;15.55;51.28;83445.59;4993141;28;45587;-81
2022/09/20 03:47:24;;;;;;;;;2.00;0.67;;;;;15.48;51.48;91660.50;4976350;28;45670;-81
2022/09/20 03:50:08;;;;;;;;;3.33;0.67;;;;;15.42;51.69;106084.53;4993993;28;46515;-82
2022/09/20 03:52:34;;;;;;;;;3.00;1.00;;;;;15.40;51.56;107459.03;4993185;28;45559;-82
2022/09/20 03:55:14;;;;;;;;;0.67;0.67;;;;;15.36;52.00;114344.16;4992940;28;45472;-82
2022/09/20 03:58:06;;;;;;;;;1.67;0.67;;;;;15.38;51.76;121596.91;4991309;28;45394;-83
2022/09/20 04:00:53;;;;;;;;;0.67;0.67;;;;;15.37;51.71;111932.38;4978542;28;47611;-83
2022/09/20 04:03:48;;;;;;;;;0.67;0.67;;;;;15.35;51.71;124011.09;4994131;28;45319;-83
2022/09/20 04:06:33;;;;;;;;;1.33;1.33;;;;;15.35;52.11;131623.00;4985215;28;45257;-82
2022/09/20 04:09:36;;;;;;;;;1.33;1.33;;;;;15.27;51.94;129181.56;4993186;28;45445;-82
2022/09/20 04:12:17;;;;;;;;;2.33;1.33;;;;;15.27;52.12;132991.69;4993407;28;46100;-82
2022/09/20 04:14:48;;;;;;;;;0.67;0.67;;;;;15.24;52.12;136796.06;4993368;28;45463;-83
2022/09/20 04:17:55;;;;;;;;;2.00;2.00;;;;;15.18;52.40;140598.75;4999553;28;45622;-83
2022/09/20 04:20:47;;;;;;;;;1.67;1.33;;;;;15.19;52.24;141642.38;5004745;28;45533;-83
2022/09/20 04:23:31;;;;;;;;;1.33;0.67;;;;;15.19;52.41;144768.88;5007884;28;46298;-82
2022/09/20 04:26:00;;;;;;;;;1.67;0.67;;;;;15.22;52.32;145816.09;4990283;28;45678;-84
2022/09/20 04:28:52;;;;;;;;;1.67;1.67;;;;;15.14;52.43;145797.47;5000509;28;45409;-83
2022/09/20 04:31:45;;;;;;;;;2.00;0.67;;;;;15.24;52.62;139570.91;4988438;28;45555;-84
2022/09/20 04:34:21;;;;;;;;;1.00;0.67;;;;;15.22;52.07;135404.72;5002765;28;46459;-82
2022/09/20 04:37:03;;;;;;;;;1.67;1.67;;;;;15.14;52.45;141283.22;4994150;28;45370;-82
2022/09/20 04:39:46;;;;;;;;;1.67;1.67;;;;;15.15;52.50;143717.03;5007304;28;45502;-82
2022/09/20 04:42:30;;;;;;;;;2.33;1.67;;;;;15.08;52.46;143699.88;4992043;28;45512;-82
2022/09/20 04:45:31;;;;;;;;;1.00;1.00;;;;;15.10;52.26;139885.66;4999408;28;46394;-82
2022/09/20 04:48:22;;;;;;;;;0.67;0.67;;;;;15.18;52.30;137823.50;5001458;28;45522;-82
2022/09/20 04:51:02;;;;;;;;;2.00;2.00;;;;;15.14;52.15;136773.91;5007040;28;45593;-81
2022/09/20 04:53:28;;;;;;;;;2.00;2.00;;;;;15.14;52.63;140243.34;5012061;28;45571;-81
2022/09/20 04:56:07;;;;;;;;;1.67;1.67;;;;;15.13;52.23;138158.53;5009889;28;45524;-81
2022/09/20 04:58:51;;;;;;;;;0.67;0.67;;;;;15.10;52.22;141620.63;4985273;28;45367;-82
2022/09/20 05:01:49;;;;;;;;;6.00;3.00;;;;;15.06;52.49;145084.09;4985753;28;45626;-82
2022/09/20 05:05:05;;;;;;;;;2.67;2.67;;;;;15.06;52.70;146125.00;4991939;28;45516;-82
2022/09/20 05:07:48;;;;;;;;;1.00;1.00;;;;;15.07;52.86;147864.97;4980450;28;46096;-83
2022/09/20 05:10:29;;;;;;;;;3.33;1.67;;;;;14.98;52.72;149582.78;4993361;28;45300;-82
2022/09/20 05:13:16;;;;;;;;;3.00;2.67;;;;;15.03;52.91;152723.38;4990342;28;45556;-83
2022/09/20 05:16:04;;;;;;;;;8.67;4.33;;;;;15.04;53.04;153770.03;4971968;28;45402;-82
2022/09/20 05:18:33;;;;;;;;;3.00;2.00;;;;;15.06;53.18;153080.53;4984125;28;45534;-82
2022/09/20 05:21:10;;;;;;;;;2.33;2.33;;;;;15.11;53.08;152397.56;4990549;28;46054;-84
2022/09/20 05:23:35;;;;;;;;;2.00;2.00;;;;;15.17;53.01;151717.19;4991928;28;45502;-85
2022/09/20 05:26:31;;;;;;;;;4.00;4.00;;;;;15.18;52.89;149632.53;4994401;28;45424;-79
2022/09/20 05:29:06;;;;;;;;;2.67;2.67;;;;;15.19;52.85;151374.44;4981163;28;46942;-82
2022/09/20 05:32:09;;;;;;;;;2.00;2.00;;;;;15.17;53.12;154152.25;4972805;28;46037;-78
2022/09/20 05:34:51;;;;;;;;;1.67;1.67;;;;;15.17;52.96;154153.59;4988214;28;45580;-76
2022/09/20 05:37:25;;;;;;;;;2.00;2.00;;;;;15.20;52.99;154508.34;4986576;28;45622;-79
2022/09/20 05:40:14;;;;;;;;;1.67;1.67;;;;;15.20;53.14;154509.66;4989312;28;46260;-78
2022/09/20 05:42:47;;;;;;;;;1.67;1.67;;;;;15.16;53.21;154150.94;4986716;28;45526;-76
2022/09/20 05:45:40;;;;;;;;;4.00;2.33;;;;;15.27;53.14;152436.56;4978745;27;46154;-70
2022/09/20 05:48:17;;;;;;;;;1.33;1.00;;;;;15.29;52.93;150701.69;4984777;28;45433;-70
2022/09/20 05:50:46;;;;;;;;;0.67;0.67;;;;;15.33;52.84;150365.31;4986158;28;46136;-70
2022/09/20 05:53:40;;;;;;;;;2.00;1.00;;;;;15.38;52.83;152117.00;4987256;28;47143;-72
2022/09/20 05:56:38;;;;;;;;;2.67;2.67;;;;;15.40;53.12;152122.19;4978486;28;45663;-72
2022/09/20 05:59:28;;;;;;;;;2.33;2.00;;;;;15.48;53.01;149009.44;4992487;28;45254;-72
2022/09/20 06:02:10;;;;;;;;;4.67;3.33;;;;;15.50;52.91;150059.66;4992997;28;47300;-72
2022/09/20 06:04:52;;;;;;;;;5.33;2.00;;;;;15.53;52.85;149370.09;4984880;28;45314;-72
2022/09/20 06:07:26;;;;;;;;;2.67;2.67;;;;;15.58;52.72;145209.09;4989332;28;45482;-72
2022/09/20 06:09:59;;;;;;;;;2.00;2.00;;;;;15.62;52.92;143481.09;4980552;28;45540;-72
2022/09/20 06:12:30;;;;;;;;;3.00;2.00;;;;;15.69;52.48;125809.91;4990808;28;45436;-72
2022/09/20 06:15:02;;;;;;;;;3.00;2.33;;;;;15.72;52.39;124432.28;4991815;28;45526;-72
2022/09/20 06:17:37;;;;;;;;;3.33;3.00;;;;;15.63;52.68;139316.59;4993628;28;45419;-72
2022/09/20 06:20:24;;;;;;;;;2.00;2.00;;;;;15.76;52.68;140040.91;4996798;28;45464;-72
2022/09/20 06:22:57;;;;;;;;;3.00;2.33;;;;;15.76;52.77;145600.25;4995952;28;47004;-72
2022/09/20 06:25:30;;;;;;;;;1.00;1.00;;;;;15.82;52.91;149790.84;4996457;28;45506;-72
2022/09/20 06:28:12;;;;;;;;;3.00;3.00;;;;;15.88;52.75;143889.97;4996386;28;45479;-72
2022/09/20 06:30:49;;;;;;;;;2.67;2.67;;;;;15.92;52.70;118249.03;4996856;28;45431;-72
2022/09/20 06:33:20;;;;;;;;;3.67;2.00;;;;;15.94;52.24;91387.97;4990016;28;46358;-72
2022/09/20 06:41:25;;;;;;;;;1.67;1.67;;;;;15.89;52.06;98938.88;4996020;28;45324;-72
2022/09/20 06:41:41;;;;;;;;;3.67;3.00;;;;;15.81;52.53;127914.09;4993502;28;45369;-74
2022/09/20 06:44:06;;;;;;;;;3.00;3.00;;;;;15.70;52.94;130313.38;4996244;28;47456;-74
2022/09/20 06:46:35;;;;;;;;;2.00;2.00;;;;;15.84;52.68;142838.50;4985196;28;45543;-71
2022/09/20 06:49:01;;;;;;;;;2.33;2.33;;;;;15.84;52.71;143186.09;4989439;28;45455;-70
2022/09/20 06:51:32;;;;;;;;;2.33;2.33;;;;;15.85;52.76;145273.50;4995783;28;45385;-70
2022/09/20 06:53:58;;;;;;;;;3.00;3.00;;;;;15.84;52.76;148055.50;4995440;28;46230;-71
2022/09/20 06:56:30;;;;;;;;;6.33;6.00;;;;;15.85;53.08;147708.72;4977827;28;45400;-71
2022/09/20 06:58:56;;;;;;;;;3.00;3.00;;;;;15.89;52.78;141113.00;4994846;28;45444;-70
2022/09/20 07:01:22;;;;;;;;;4.33;4.33;;;;;15.86;52.63;129308.41;4995713;28;45329;-71
2022/09/20 07:03:47;;;;;;;;;2.00;2.00;;;;;15.91;52.43;119976.13;4995292;28;47223;-70
2022/09/20 07:06:16;;;;;;;;;4.00;3.00;;;;;15.88;52.72;128274.66;4995093;28;45373;-70
2022/09/20 07:08:42;;;;;;;;;4.00;2.67;;;;;15.89;52.65;135210.31;4995384;28;45449;-70
2022/09/20 07:11:14;;;;;;;;;11.67;9.00;;;;;15.92;52.48;139034.66;4995431;28;45452;-70
2022/09/20 07:13:40;;;;;;;;;17.33;15.00;;;;;15.92;53.25;155044.22;4995416;28;46150;-69
2022/09/20 07:16:07;;;;;;;;;7.00;7.00;;;;;15.94;53.50;155050.81;4995322;28;45437;-69
2022/09/20 07:18:33;;;;;;;;;12.67;7.00;;;;;15.99;53.30;155064.06;4995211;28;45318;-69
2022/09/20 07:20:59;;;;;;;;;4.67;4.67;;;;;15.99;53.31;155061.34;4995076;28;45472;-68
2022/09/20 07:23:26;;;;;;;;;6.00;5.67;;;;;16.07;53.39;155083.88;4995323;28;46259;-68
2022/09/20 07:25:52;;;;;;;;;4.00;3.00;;;;;16.04;53.37;153679.91;4995059;28;45492;-69
2022/09/20 07:28:19;;;;;;;;;5.33;3.00;;;;;16.13;53.50;154746.91;4995175;28;45311;-70
2022/09/20 07:30:45;;;;;;;;;4.50;4.00;;;;;16.13;53.40;155098.38;4995096;28;45518;-70
2022/09/20 07:33:15;;;;;;;;;5.33;5.33;;;;;16.13;53.65;155098.38;4994754;28;45323;-70
2022/09/20 07:35:41;;;;;;;;;3.67;2.00;;;;;16.08;53.60;155086.50;4994655;28;45426;-70
2022/09/20 07:38:07;;;;;;;;;5.67;3.00;;;;;16.13;54.07;155099.75;4994943;28;45389;-70
2022/09/20 07:40:33;;;;;;;;;5.00;4.33;;;;;16.19;53.40;155112.84;4995325;28;45389;-70
2022/09/20 07:42:58;;;;;;;;;3.00;3.00;;;;;16.22;53.41;153724.41;4976734;28;45404;-70
2022/09/20 07:45:24;;;;;;;;;3.33;3.33;;;;;16.26;53.53;154083.63;4995381;28;47287;-70
2022/09/20 07:47:52;;;;;;;;;7.00;5.33;;;;;16.28;52.81;147815.78;4994805;28;45287;-71
2022/09/20 07:50:18;;;;;;;;;5.00;3.00;;;;;16.31;53.37;147822.06;4994874;28;45553;-71
2022/09/20 07:52:44;;;;;;;;;5.00;3.67;;;;;16.28;53.14;141898.66;4994835;28;45369;-70
2022/09/20 07:55:09;;;;;;;;;3.00;3.00;;;;;16.35;53.38;152013.63;4993647;28;45393;-70
2022/09/20 07:57:36;;;;;;;;;4.67;2.00;;;;;16.35;53.34;140178.22;4995249;28;45444;-70
2022/09/20 08:00:04;;;;;;;;;3.00;3.00;;;;;16.37;52.46;113155.03;4995684;28;45528;-70
2022/09/20 08:02:29;;;;;;;;;5.00;4.00;;;;;16.41;53.23;151333.19;4973842;28;46337;-70
2022/09/20 08:04:55;;;;;;;;;4.67;3.33;;;;;16.48;53.20;152045.97;4992502;28;54249;-71
2022/09/20 08:07:20;;;;;;;;;6.00;5.00;;;;;16.51;53.57;154845.81;4995621;28;45367;-70
2022/09/20 08:09:45;;;;;;;;;3.00;3.00;;;;;16.52;52.89;148918.97;4995565;28;45358;-70
2022/09/20 08:12:13;;;;;;;;;5.00;5.00;;;;;16.61;53.45;155223.94;4987906;28;58843;-70
2022/09/20 08:14:38;;;;;;;;;3.00;3.00;;;;;16.57;52.45;127381.13;4988627;28;45464;-70
2022/09/20 08:17:04;;;;;;;;;3.00;3.00;;;;;16.67;52.54;109758.09;4995083;28;45872;-70
2022/09/20 08:19:29;;;;;;;;;5.00;3.33;;;;;16.68;52.68;126018.28;4995466;28;45299;-70
2022/09/20 08:21:55;;;;;;;;;4.00;4.00;;;;;16.58;52.64;116650.03;4994981;28;46064;-70
2022/09/20 08:24:21;;;;;;;;;4.67;3.00;;;;;16.75;52.37;112535.44;4995085;28;45436;-70
2022/09/20 08:26:47;;;;;;;;;5.33;4.00;;;;;16.79;52.76;119112.91;4977573;28;45417;-70
2022/09/20 08:29:14;;;;;;;;;3.67;3.00;;;;;16.81;52.78;117386.72;4988702;28;45684;-70
2022/09/20 08:31:41;;;;;;;;;7.33;5.00;;;;;16.87;52.95;144128.03;4987756;28;45959;-71
2022/09/20 08:34:08;;;;;;;;;7.33;7.33;;;;;16.96;52.60;137536.28;4995033;28;45258;-70
2022/09/20 08:36:37;;;;;;;;;6.00;4.00;;;;;16.96;52.46;117416.78;4995179;28;45401;-70
2022/09/20 08:39:04;;;;;;;;;4.33;3.00;;;;;17.02;51.92;75081.03;4995231;28;45429;-70
2022/09/20 08:41:33;;;;;;;;;6.67;3.33;;;;;17.14;52.22;93980.75;4994009;28;46377;-70
2022/09/20 08:44:11;;;;;;;;;4.33;4.33;;;;;17.16;52.43;99494.56;4994825;28;45511;-78
2022/09/20 08:47:01;;;;;;;;;5.67;5.00;;;;;17.21;52.56;118157.34;4994595;28;45327;-77
2022/09/20 08:49:28;;;;;;;;;5.00;4.33;;;;;17.27;52.22;94000.84;4995147;28;45415;-77
2022/09/20 08:51:56;;;;;;;;;4.67;4.00;;;;;17.32;52.71;118178.50;4994577;28;46816;-77
2022/09/20 08:54:25;;;;;;;;;6.33;4.00;;;;;17.28;52.22;80256.16;4973616;28;45403;-77
2022/09/20 08:56:51;;;;;;;;;6.67;6.00;;;;;17.41;52.01;59220.72;4985267;28;45634;-77
2022/09/20 08:59:20;;;;;;;;;6.33;5.00;;;;;17.42;51.99;95746.16;4994900;28;45463;-77
2022/09/20 09:01:50;;;;;;;;;6.00;6.00;;;;;17.52;52.20;54089.84;4994420;28;45594;-77
2022/09/20 09:04:22;;;;;;;;;3.67;3.67;;;;;17.57;52.17;98872.09;4994407;28;45643;-77
2022/09/20 09:06:48;;;;;;;;;6.33;5.00;;;;;17.64;51.46;44712.78;4994877;28;45423;-77
2022/09/20 09:09:25;;;;;;;;;4.00;4.00;;;;;17.70;51.67;36681.66;4995045;28;45639;-77
2022/09/20 09:11:52;;;;;;;;;5.00;5.00;;;;;17.77;52.01;91668.81;4981345;28;47193;-77
2022/09/20 09:17:05;;;;;;;;;3.33;3.33;;;;;17.85;51.64;5495.41;4994491;28;45363;-77
2022/09/20 09:19:42;;;;;;;;;3.67;3.67;;;;;17.83;51.71;16858.91;4995052;28;45308;-77
2022/09/20 09:22:08;;;;;;;;;5.00;4.00;;;;;17.97;51.56;947.66;4994531;28;45430;-76
2022/09/20 09:24:33;;;;;;;;;4.67;3.33;;;;;17.98;51.57;37373.53;4994480;28;45209;-77
2022/09/20 09:27:18;;;;;;;;;5.00;5.00;;;;;18.10;51.75;49033.13;4994519;28;45471;-76
2022/09/20 09:29:52;;;;;;;;;4.33;3.67;;;;;18.13;51.22;-17092.38;4973552;28;45452;-77
2022/09/20 09:32:26;;;;;;;;;4.00;2.33;;;;;18.25;51.53;52171.06;4981417;28;46874;-77
2022/09/20 09:34:51;;;;;;;;;4.00;4.00;;;;;18.39;51.19;-4056.41;4994091;28;45479;-77
2022/09/20 09:37:32;;;;;;;;;3.00;3.00;;;;;18.53;50.69;-19703.56;4994363;28;45532;-76
2022/09/20 09:40:17;;;;;;;;;4.00;4.00;;;;;18.65;50.45;-19706.63;4994404;28;45452;-77
2022/09/20 09:42:49;;;;;;;;;4.33;4.00;;;;;18.72;50.15;-19708.38;4993775;28;47021;-76
2022/09/20 09:45:39;;;;;;;;;4.67;4.67;;;;;18.75;50.30;-19709.31;4993787;28;45443;-70
2022/09/20 09:48:22;;;;;;;;;5.00;5.00;;;;;18.85;49.85;-19711.84;4994177;28;45425;-71
2022/09/20 09:50:47;;;;;;;;;4.00;3.00;;;;;18.90;49.49;-19713.19;4993993;28;45351;-70
2022/09/20 09:53:21;;;;;;;;;4.00;3.00;;;;;18.87;49.52;-19712.38;4977991;28;48114;-71
2022/09/20 09:56:21;;;;;;;;;8.00;5.00;;;;;18.89;50.31;-19712.91;4996966;28;45456;-70
2022/09/20 09:59:09;;;;;;;;;6.00;5.00;;;;;18.95;49.92;-19714.38;4997744;28;45320;-71
2022/09/20 10:02:13;;;;;;;;;3.67;3.67;;;;;18.93;49.71;-19713.84;4998662;28;45400;-71
2022/09/20 10:04:56;;;;;;;;;3.00;3.00;;;;;18.91;50.09;-19713.44;4919709;28;46087;-71
2022/09/20 10:08:26;;;;;;;;;5.00;3.00;;;;;18.89;49.89;-19712.78;4920254;28;45412;-71
2022/09/20 10:11:13;;;;;;;;;2.33;2.00;;;;;18.97;49.72;-19714.91;4863431;29;45363;-71
2022/09/20 10:13:49;;;;;;;;;1.67;1.67;;;;;18.97;49.40;-19715.06;4863423;29;45572;-70
2022/09/20 10:16:43;;;;;;;;;4.00;3.00;;;;;19.04;49.77;-19716.66;4863013;29;45534;-71
2022/09/20 10:19:23;;;;;;;;;3.33;2.00;;;;;19.04;48.56;-19716.78;4863048;29;45433;-71
2022/09/20 10:22:00;;;;;;;;;3.00;3.00;;;;;19.00;48.96;-19715.72;4850121;29;45486;-70
2022/09/20 10:24:44;;;;;;;;;2.00;2.00;;;;;19.06;49.40;-19717.31;4878961;29;45559;-71
2022/09/20 10:27:53;;;;;;;;;4.00;3.00;;;;;19.09;49.38;-19718.00;4862880;29;45450;-71
2022/09/20 10:30:24;;;;;;;;;3.33;2.00;;;;;19.18;49.25;-19720.53;4862767;29;45303;-71
2022/09/20 10:33:11;;;;;;;;;3.33;1.33;;;;;19.27;48.99;-19722.66;4863165;29;45689;-71
2022/09/20 10:36:08;;;;;;;;;3.33;2.00;;;;;19.23;49.07;-19721.72;4929068;28;45659;-71
2022/09/20 10:38:47;;;;;;;;;2.33;2.33;;;;;19.49;48.50;-19728.41;4954470;28;46165;-71
2022/09/20 10:44:30;;;;;;;;;2.33;2.33;;;;;19.74;48.00;-19734.94;4865271;28;45576;-76
2022/09/20 10:47:05;;;;;;;;;4.00;2.00;;;;;19.88;47.90;-19738.53;4970495;28;45593;-76
2022/09/20 10:49:40;;;;;;;;;3.33;2.00;;;;;20.00;47.96;-19741.75;4996299;28;45247;-76
2022/09/20 10:52:17;;;;;;;;;2.00;2.00;;;;;20.19;47.28;-19746.69;4996342;28;45410;-77
2022/09/20 10:54:45;;;;;;;;;2.67;2.00;;;;;20.39;47.11;-19751.88;4996624;28;45357;-76
2022/09/20 10:57:34;;;;;;;;;3.00;3.00;;;;;20.59;46.38;-19757.22;4996248;28;45468;-76
2022/09/20 11:00:20;;;;;;;;;2.00;2.00;;;;;20.80;46.30;-19762.69;4996086;28;46186;-76
2022/09/20 11:02:51;;;;;;;;;5.33;4.00;;;;;21.00;46.59;-19767.75;4996007;28;45661;-77
2022/09/20 11:05:25;;;;;;;;;4.00;4.00;;;;;21.14;46.25;-19771.47;4974697;28;45407;-77
2022/09/20 11:07:53;;;;;;;;;4.00;3.33;;;;;21.26;45.46;-19774.53;4992044;28;45434;-77
2022/09/20 11:10:28;;;;;;;;;4.33;3.00;;;;;21.40;45.57;-19778.13;4995834;28;46263;-76
2022/09/20 11:12:59;;;;;;;;;4.67;2.67;;;;;21.50;44.65;-19780.94;4995625;28;45326;-77
2022/09/20 11:15:47;;;;;;;;;4.00;4.00;;;;;21.46;44.50;-19779.72;4996285;28;45495;-76
2022/09/20 11:18:22;;;;;;;;;5.00;4.00;;;;;21.50;44.95;-19780.94;4996030;28;45487;-76
2022/09/20 11:21:15;;;;;;;;;3.00;3.00;;;;;21.60;45.33;-19783.44;4996013;28;47447;-76
2022/09/20 11:23:54;;;;;;;;;3.00;3.00;;;;;21.64;44.96;-19784.53;4995966;28;45453;-76
2022/09/20 11:26:43;;;;;;;;;3.33;3.33;;;;;21.72;43.83;-19786.50;4995976;28;45423;-76
2022/09/20 11:29:21;;;;;;;;;3.00;2.00;;;;;21.73;44.17;-19786.78;4985461;28;45445;-76
2022/09/20 11:31:49;;;;;;;;;1.67;1.00;;;;;21.65;44.39;-19784.78;4995732;28;45425;-76
2022/09/20 11:34:24;;;;;;;;;3.00;2.00;;;;;21.78;43.21;-19787.97;4995704;28;45214;-76
2022/09/20 11:37:02;;;;;;;;;3.00;3.00;;;;;21.72;43.98;-19786.50;4995685;28;45417;-76
2022/09/20 11:39:37;;;;;;;;;2.00;2.00;;;;;21.80;43.39;-19788.50;4996209;28;45436;-76
2022/09/20 11:42:04;;;;;;;;;1.67;1.67;;;;;21.81;44.08;-19788.78;4995384;28;46195;-77
2022/09/20 11:44:30;;;;;;;;;3.00;2.00;;;;;21.86;43.80;-19790.09;4995803;28;45556;-76
2022/09/20 11:47:02;;;;;;;;;2.67;2.67;;;;;21.80;43.76;-19788.66;4995540;28;45404;-77
2022/09/20 11:49:27;;;;;;;;;1.00;1.00;;;;;21.79;43.54;-19788.38;4995941;28;45743;-76
2022/09/20 11:52:05;;;;;;;;;2.00;2.00;;;;;21.68;43.87;-19785.44;4995232;28;45295;-76
2022/09/20 11:54:43;;;;;;;;;1.00;1.00;;;;;21.71;43.75;-19786.25;4995371;28;45800;-76
2022/09/20 11:57:15;;;;;;;;;3.00;1.67;;;;;21.57;43.11;-19782.66;4995479;28;45416;-76
2022/09/20 11:59:42;;;;;;;;;2.00;0.00;;;;;21.59;43.83;-19783.06;4996118;28;45503;-76
2022/09/20 12:02:22;;;;;;;;;1.00;1.00;;;;;21.60;43.83;-19783.31;4995394;28;45369;-76
2022/09/20 12:04:52;;;;;;;;;2.67;2.67;;;;;21.58;44.31;-19782.91;4995132;28;45381;-76
2022/09/20 12:07:38;;;;;;;;;4.00;2.33;;;;;21.59;43.66;-19783.06;4995689;28;45407;-76
2022/09/20 12:10:19;;;;;;;;;2.00;2.00;;;;;21.59;44.04;-19783.19;4977327;28;45576;-77
2022/09/20 12:12:53;;;;;;;;;2.33;1.33;;;;;21.58;43.71;-19782.78;4989383;28;46523;-77
2022/09/20 12:15:26;;;;;;;;;6.67;2.00;;;;;21.62;43.54;-19783.84;4994646;28;45429;-76
2022/09/20 12:17:51;;;;;;;;;2.00;2.00;;;;;21.62;43.71;-19783.84;4994899;28;45324;-76
2022/09/20 12:20:31;;;;;;;;;4.00;3.00;;;;;21.62;43.68;-19784.00;4995645;28;45872;-76
2022/09/20 12:23:35;;;;;;;;;1.00;1.00;;;;;21.62;44.11;-19784.00;4994952;28;45411;-76
2022/09/20 12:26:12;;;;;;;;;1.33;1.00;;;;;21.59;43.93;-19783.19;4995383;28;45400;-76